Time;durP1;ratioP1;P1;durP2;ratioP2;P2;SDS_P1;SDS_P2;PMS_P1;PMS_P2;Temp;Humidity;BMP_temperature;BMP_pressure;BME280_temperature;BME280_humidity;BME280_pressure;Samples;Min_cycle;Max_cycle;Signal;HPM_P1;HPM_P2
2022/10/11 00:00:29;;;;;;;8.73;5.80;;;14.10;99.90;;;;;;4949542;28;20207;-81
2022/10/11 00:02:56;;;;;;;5.73;5.13;;;14.10;99.90;;;;;;4951402;28;20199;-80
2022/10/11 00:05:23;;;;;;;6.30;5.70;;;14.00;99.90;;;;;;4956174;28;20218;-82
2022/10/11 00:07:50;;;;;;;7.70;5.63;;;14.00;99.90;;;;;;4936009;29;20605;-81
2022/10/11 00:10:19;;;;;;;6.10;5.00;;;14.00;99.90;;;;;;4930650;29;20244;-82
2022/10/11 00:12:46;;;;;;;6.13;5.40;;;14.00;99.90;;;;;;4946049;29;20187;-81
2022/10/11 00:15:15;;;;;;;5.83;5.23;;;14.00;99.90;;;;;;4953391;28;20281;-81
2022/10/11 00:17:42;;;;;;;8.93;5.93;;;14.10;99.90;;;;;;4928710;29;20248;-82
2022/10/11 00:20:10;;;;;;;6.40;5.80;;;14.10;99.90;;;;;;4929165;29;20302;-82
2022/10/11 00:22:38;;;;;;;9.77;8.90;;;14.10;99.90;;;;;;4934709;29;20686;-81
2022/10/11 00:25:07;;;;;;;11.70;10.60;;;14.10;99.90;;;;;;4953911;28;20200;-82
2022/10/11 00:27:36;;;;;;;11.97;10.87;;;14.10;99.90;;;;;;4937169;28;20227;-82
2022/10/11 00:30:04;;;;;;;10.13;9.23;;;14.00;99.90;;;;;;4935803;29;20286;-82
2022/10/11 00:32:33;;;;;;;12.40;11.20;;;14.10;99.90;;;;;;4952970;29;20200;-82
2022/10/11 00:35:03;;;;;;;11.83;10.60;;;14.00;99.90;;;;;;4927588;29;20675;-81
2022/10/11 00:37:30;;;;;;;11.20;10.30;;;14.00;99.90;;;;;;4953291;28;20192;-81
2022/10/11 00:39:57;;;;;;;11.00;10.10;;;14.00;99.90;;;;;;4930979;29;20219;-81
2022/10/11 00:42:24;;;;;;;10.67;9.73;;;14.00;99.90;;;;;;4931685;29;20200;-81
2022/10/11 00:45:12;;;;;;;10.73;9.80;;;14.00;99.90;;;;;;4933720;29;20210;-81
2022/10/11 00:47:41;;;;;;;10.87;9.97;;;14.00;99.90;;;;;;4952702;28;20684;-82
2022/10/11 00:50:11;;;;;;;11.40;10.40;;;14.00;99.90;;;;;;4952893;28;20730;-82
2022/10/11 00:52:41;;;;;;;10.90;9.90;;;14.00;99.90;;;;;;4937530;28;20206;-82
2022/10/11 00:55:12;;;;;;;10.30;9.50;;;14.00;99.90;;;;;;4928910;29;20637;-82
2022/10/11 00:57:43;;;;;;;10.63;9.63;;;13.90;99.90;;;;;;4952520;29;20228;-81
2022/10/11 01:00:14;;;;;;;10.40;9.37;;;13.90;99.90;;;;;;4927958;29;20222;-81
2022/10/11 01:02:42;;;;;;;9.07;8.17;;;13.90;99.90;;;;;;4929750;29;20207;-81
2022/10/11 01:05:15;;;;;;;5.97;5.37;;;13.90;99.90;;;;;;4956044;28;20194;-82
2022/10/11 01:07:44;;;;;;;6.90;5.53;;;13.90;99.90;;;;;;4929283;29;20236;-81
2022/10/11 01:10:11;;;;;;;7.03;5.93;;;13.90;99.90;;;;;;4953555;28;20206;-82
2022/10/11 01:12:51;;;;;;;8.57;6.17;;;13.80;99.90;;;;;;4934234;29;20206;-82
2022/10/11 01:15:25;;;;;;;6.77;6.00;;;13.80;99.90;;;;;;4927672;28;20668;-82
2022/10/11 01:18:00;;;;;;;9.03;6.43;;;13.80;99.90;;;;;;4937578;29;20672;-82
2022/10/11 01:20:49;;;;;;;8.00;5.73;;;13.80;99.90;;;;;;4927379;29;20213;-81
2022/10/11 01:23:52;;;;;;;8.57;7.77;;;13.80;99.90;;;;;;4955568;28;20205;-81
2022/10/11 01:26:46;;;;;;;8.50;7.70;;;13.70;99.90;;;;;;4930790;29;20227;-81
2022/10/11 01:29:24;;;;;;;7.60;6.30;;;13.80;99.90;;;;;;4930058;28;20232;-81
2022/10/11 01:31:58;;;;;;;11.07;6.43;;;13.80;99.90;;;;;;4954912;28;20190;-81
2022/10/11 01:34:32;;;;;;;14.50;13.27;;;13.70;99.90;;;;;;4954100;28;20575;-82
2022/10/11 01:37:05;;;;;;;14.27;12.90;;;13.80;99.90;;;;;;4929884;29;20229;-82
2022/10/11 01:39:36;;;;;;;12.73;11.73;;;13.70;99.90;;;;;;4954449;29;20202;-82
2022/10/11 01:42:06;;;;;;;11.63;10.63;;;13.70;99.90;;;;;;4929716;29;20242;-81
2022/10/11 01:44:36;;;;;;;7.07;6.00;;;13.60;99.90;;;;;;4933946;29;20272;-81
2022/10/11 01:47:04;;;;;;;6.80;5.90;;;13.60;99.90;;;;;;4928106;29;20747;-81
2022/10/11 01:49:31;;;;;;;7.40;6.27;;;13.50;99.90;;;;;;4951335;28;20211;-81
2022/10/11 01:52:03;;;;;;;10.13;9.13;;;13.50;99.90;;;;;;4926335;29;20200;-81
2022/10/11 01:54:49;;;;;;;7.87;6.23;;;13.40;99.90;;;;;;4934075;28;20195;-81
2022/10/11 01:57:40;;;;;;;15.43;14.33;;;13.40;99.90;;;;;;4935823;29;20712;-81
2022/10/11 02:00:12;;;;;;;15.20;14.10;;;13.30;99.90;;;;;;4952147;29;20208;-81
2022/10/11 02:03:02;;;;;;;12.97;11.97;;;13.40;99.90;;;;;;4935646;28;20665;-81
2022/10/11 02:05:35;;;;;;;16.20;14.93;;;13.30;99.90;;;;;;4934255;29;20223;-81
2022/10/11 02:08:09;;;;;;;16.23;15.00;;;13.30;99.90;;;;;;4926310;29;20230;-82
2022/10/11 02:10:41;;;;;;;12.23;9.40;;;13.30;99.90;;;;;;4925701;29;20203;-81
2022/10/11 02:13:16;;;;;;;14.57;13.37;;;13.30;99.90;;;;;;4927134;29;20215;-80
2022/10/11 02:15:44;;;;;;;15.00;13.70;;;13.30;99.90;;;;;;4931458;29;20281;-82
2022/10/11 02:18:16;;;;;;;17.23;15.60;;;13.30;99.90;;;;;;4928742;29;20256;-82
2022/10/11 02:20:45;;;;;;;15.87;14.77;;;13.30;99.90;;;;;;4932252;29;20210;-82
2022/10/11 02:23:15;;;;;;;14.87;13.67;;;13.30;99.90;;;;;;4927649;29;20231;-82
2022/10/11 02:25:44;;;;;;;17.07;15.57;;;13.30;99.90;;;;;;4934994;28;20317;-81
2022/10/11 02:28:17;;;;;;;15.57;14.23;;;13.30;99.90;;;;;;4952235;29;20219;-81
2022/10/11 02:30:47;;;;;;;7.00;6.30;;;13.30;99.90;;;;;;4951167;28;20202;-82
2022/10/11 02:33:19;;;;;;;9.40;8.23;;;13.20;99.90;;;;;;4952962;28;20202;-82
2022/10/11 02:35:53;;;;;;;16.73;15.43;;;13.20;99.90;;;;;;4949346;28;20238;-81
2022/10/11 02:38:25;;;;;;;16.73;15.33;;;13.10;99.90;;;;;;4929599;29;20199;-82
2022/10/11 02:40:57;;;;;;;16.20;15.00;;;13.20;99.90;;;;;;4952984;28;20223;-81
2022/10/11 02:43:30;;;;;;;16.97;15.60;;;13.10;99.90;;;;;;4929694;29;20238;-81
2022/10/11 02:46:00;;;;;;;15.80;14.70;;;13.10;99.90;;;;;;4935210;29;20223;-80
2022/10/11 02:48:29;;;;;;;16.27;15.07;;;13.20;99.90;;;;;;4929475;28;20210;-81
2022/10/11 02:50:57;;;;;;;15.10;13.93;;;13.10;99.90;;;;;;4925070;28;20249;-79
2022/10/11 02:53:26;;;;;;;16.30;15.10;;;13.20;99.90;;;;;;4955350;29;20194;-80
2022/10/11 02:55:54;;;;;;;17.17;15.80;;;13.20;99.90;;;;;;4926664;29;20603;-80
2022/10/11 02:58:22;;;;;;;16.87;15.47;;;13.20;99.90;;;;;;4929900;29;20209;-81
2022/10/11 03:00:49;;;;;;;17.37;15.87;;;13.20;99.90;;;;;;4921371;29;20297;-80
2022/10/11 03:03:16;;;;;;;18.30;16.70;;;13.30;99.90;;;;;;4936622;29;20568;-80
2022/10/11 03:05:44;;;;;;;17.03;15.70;;;13.30;99.90;;;;;;4920009;29;20230;-80
2022/10/11 03:08:13;;;;;;;17.63;16.23;;;13.30;99.90;;;;;;4918908;29;20222;-80
2022/10/11 03:10:41;;;;;;;17.60;16.50;;;13.30;99.90;;;;;;4918999;29;20897;-81
2022/10/11 03:13:08;;;;;;;17.17;15.67;;;13.40;99.90;;;;;;4946503;29;20198;-80
2022/10/11 03:15:35;;;;;;;16.53;15.23;;;13.40;99.90;;;;;;4955830;29;20218;-82
2022/10/11 03:18:02;;;;;;;17.10;15.77;;;13.40;99.90;;;;;;4935101;29;20210;-80
2022/10/11 03:20:29;;;;;;;17.93;16.73;;;13.50;99.90;;;;;;4951084;29;20195;-80
2022/10/11 03:22:57;;;;;;;17.30;15.70;;;13.50;99.90;;;;;;4947567;28;20187;-80
2022/10/11 03:25:24;;;;;;;16.10;14.83;;;13.50;99.90;;;;;;4926343;29;20570;-79
2022/10/11 03:27:51;;;;;;;13.97;12.67;;;13.50;99.90;;;;;;4950740;28;20201;-80
2022/10/11 03:30:19;;;;;;;15.40;14.30;;;13.60;99.90;;;;;;4943435;28;20210;-80
2022/10/11 03:32:45;;;;;;;15.83;14.63;;;13.60;99.90;;;;;;4928518;29;20207;-80
2022/10/11 03:35:12;;;;;;;13.43;12.33;;;13.60;99.90;;;;;;4932220;29;20696;-81
2022/10/11 03:37:39;;;;;;;14.03;12.80;;;13.50;99.90;;;;;;4929296;29;20230;-81
2022/10/11 03:40:14;;;;;;;17.07;15.87;;;13.60;99.90;;;;;;4948199;28;20715;-80
2022/10/11 03:42:41;;;;;;;13.80;12.70;;;13.60;99.90;;;;;;4931333;28;20229;-80
2022/10/11 03:45:09;;;;;;;14.40;13.40;;;13.60;99.90;;;;;;4948375;29;20195;-80
2022/10/11 03:47:37;;;;;;;14.90;13.63;;;13.50;99.90;;;;;;4931145;29;20248;-80
2022/10/11 03:50:04;;;;;;;16.80;15.40;;;13.50;99.90;;;;;;4923513;29;20705;-82
2022/10/11 03:52:31;;;;;;;15.53;14.33;;;13.50;99.90;;;;;;4951433;28;20207;-80
2022/10/11 03:54:58;;;;;;;14.13;13.23;;;13.50;99.90;;;;;;4926467;29;20208;-81
2022/10/11 03:57:27;;;;;;;15.53;14.33;;;13.50;99.90;;;;;;4925874;29;20604;-81
2022/10/11 03:59:54;;;;;;;17.23;15.37;;;13.50;99.90;;;;;;4930305;29;20227;-81
2022/10/11 04:02:21;;;;;;;16.40;15.20;;;13.50;99.90;;;;;;4948056;28;20277;-81
2022/10/11 04:04:48;;;;;;;15.77;14.20;;;13.50;99.90;;;;;;4922854;29;20195;-82
2022/10/11 04:07:16;;;;;;;17.63;15.90;;;13.50;99.90;;;;;;4949437;28;20723;-81
2022/10/11 04:09:43;;;;;;;15.93;14.50;;;13.40;99.90;;;;;;4950704;28;20218;-81
2022/10/11 04:12:18;;;;;;;14.40;13.27;;;13.40;99.90;;;;;;4929944;29;20239;-81
2022/10/11 04:14:52;;;;;;;15.20;13.70;;;13.40;99.90;;;;;;4950847;28;20198;-81
2022/10/11 04:17:19;;;;;;;16.00;14.83;;;13.40;99.90;;;;;;4928069;29;20234;-82
2022/10/11 04:19:47;;;;;;;14.73;13.33;;;13.40;99.90;;;;;;4929043;29;20225;-81
2022/10/11 04:22:14;;;;;;;14.33;13.20;;;13.50;99.90;;;;;;4923358;28;20295;-82
2022/10/11 04:24:41;;;;;;;16.10;15.00;;;13.40;99.90;;;;;;4954242;28;20195;-81
2022/10/11 04:27:07;;;;;;;16.13;14.70;;;13.50;99.90;;;;;;4926506;29;20227;-81
2022/10/11 04:29:34;;;;;;;15.97;14.67;;;13.50;99.90;;;;;;4949888;28;20590;-81
2022/10/11 04:32:03;;;;;;;17.00;15.80;;;13.40;99.90;;;;;;4944884;28;20214;-81
2022/10/11 04:34:30;;;;;;;18.87;17.47;;;13.50;99.90;;;;;;4938617;28;20744;-82
2022/10/11 04:36:57;;;;;;;17.37;16.17;;;13.40;99.90;;;;;;4929566;29;20290;-81
2022/10/11 04:39:24;;;;;;;16.70;15.50;;;13.40;99.90;;;;;;4946538;28;20191;-81
2022/10/11 04:41:52;;;;;;;16.47;15.27;;;13.40;99.90;;;;;;4921453;29;20202;-81
2022/10/11 04:44:20;;;;;;;18.20;16.57;;;13.40;99.90;;;;;;4927278;29;20287;-81
2022/10/11 04:46:53;;;;;;;19.63;18.10;;;13.40;99.90;;;;;;4926932;29;20230;-81
2022/10/11 04:49:27;;;;;;;20.23;18.73;;;13.40;99.90;;;;;;4926656;29;20783;-81
2022/10/11 04:52:05;;;;;;;20.87;19.23;;;13.50;99.90;;;;;;4949784;28;20198;-81
2022/10/11 04:54:33;;;;;;;21.90;19.83;;;13.50;99.90;;;;;;4947032;28;20199;-82
2022/10/11 04:57:06;;;;;;;20.03;18.43;;;13.50;99.90;;;;;;4924733;29;20219;-81
2022/10/11 04:59:34;;;;;;;20.63;18.77;;;13.50;99.90;;;;;;4929543;28;20207;-81
2022/10/11 05:02:01;;;;;;;20.50;18.73;;;13.50;99.90;;;;;;4929441;29;20672;-81
2022/10/11 05:04:30;;;;;;;20.77;19.27;;;13.50;99.90;;;;;;4921683;29;20199;-81
2022/10/11 05:06:56;;;;;;;18.97;17.47;;;13.50;99.90;;;;;;4923321;29;20323;-82
2022/10/11 05:09:27;;;;;;;20.23;18.43;;;13.50;99.90;;;;;;4923952;29;20236;-81
2022/10/11 05:12:00;;;;;;;21.10;19.30;;;13.50;99.90;;;;;;4926125;29;20215;-81
2022/10/11 05:14:28;;;;;;;21.83;19.73;;;13.50;99.90;;;;;;4946556;28;20571;-82
2022/10/11 05:16:58;;;;;;;20.17;18.50;;;13.50;99.90;;;;;;4920773;28;20227;-81
2022/10/11 05:19:26;;;;;;;20.63;19.03;;;13.50;99.90;;;;;;4948444;29;20664;-79
2022/10/11 05:21:56;;;;;;;20.20;18.63;;;13.50;99.90;;;;;;4937135;29;20203;-81
2022/10/11 05:24:28;;;;;;;21.17;19.47;;;13.50;99.90;;;;;;4928809;29;20258;-81
2022/10/11 05:26:56;;;;;;;19.63;17.80;;;13.50;99.90;;;;;;4927392;29;20266;-81
2022/10/11 05:29:23;;;;;;;19.80;18.10;;;13.60;99.90;;;;;;4928866;29;20207;-81
2022/10/11 05:31:52;;;;;;;14.93;13.63;;;13.50;99.90;;;;;;4937700;28;20214;-81
2022/10/11 05:34:27;;;;;;;15.80;13.53;;;13.60;99.90;;;;;;4926991;29;20210;-82
2022/10/11 05:37:01;;;;;;;14.63;13.13;;;13.60;99.90;;;;;;4927382;29;20223;-82
2022/10/11 05:39:31;;;;;;;18.87;17.27;;;13.60;99.90;;;;;;4937403;28;20227;-81
2022/10/11 05:42:00;;;;;;;17.90;16.40;;;13.60;99.90;;;;;;4945780;29;20286;-81
2022/10/11 05:44:28;;;;;;;18.47;16.97;;;13.60;99.90;;;;;;4929034;29;20199;-82
2022/10/11 05:47:05;;;;;;;19.63;18.03;;;13.60;99.90;;;;;;4929108;29;20238;-81
2022/10/11 05:49:39;;;;;;;19.00;17.47;;;13.60;99.90;;;;;;4928314;29;20222;-81
2022/10/11 05:52:12;;;;;;;16.63;15.30;;;13.60;99.90;;;;;;4929465;29;20200;-81
2022/10/11 05:54:42;;;;;;;16.80;15.30;;;13.60;99.90;;;;;;4926796;29;20238;-81
2022/10/11 05:57:16;;;;;;;18.43;16.83;;;13.70;99.90;;;;;;4935856;28;20671;-80
2022/10/11 05:59:46;;;;;;;17.43;16.03;;;13.70;99.90;;;;;;4931586;29;20198;-81
2022/10/11 06:02:13;;;;;;;17.10;15.57;;;13.70;99.90;;;;;;4927970;29;20695;-81
2022/10/11 06:04:42;;;;;;;17.07;15.47;;;13.70;99.90;;;;;;4929247;28;20195;-82
2022/10/11 06:07:11;;;;;;;12.53;11.33;;;13.70;99.90;;;;;;4946215;29;20233;-81
2022/10/11 06:09:39;;;;;;;12.33;11.13;;;13.80;99.90;;;;;;4927659;29;20302;-81
2022/10/11 06:12:06;;;;;;;13.83;12.57;;;13.80;99.90;;;;;;4946119;28;20574;-81
2022/10/11 06:14:33;;;;;;;14.23;12.90;;;13.80;99.90;;;;;;4945684;28;20200;-82
2022/10/11 06:17:00;;;;;;;13.70;12.47;;;13.80;99.90;;;;;;4923586;29;20287;-81
2022/10/11 06:19:27;;;;;;;20.23;18.47;;;13.80;99.90;;;;;;4923145;29;20187;-82
2022/10/11 06:21:54;;;;;;;20.37;18.77;;;13.90;99.90;;;;;;4920361;29;20208;-82
2022/10/11 06:24:22;;;;;;;19.47;17.90;;;13.80;99.90;;;;;;4921848;28;20218;-81
2022/10/11 06:26:49;;;;;;;17.70;16.30;;;13.90;99.90;;;;;;4920596;29;20279;-82
2022/10/11 06:29:16;;;;;;;15.63;14.40;;;13.90;99.90;;;;;;4929059;29;20251;-81
2022/10/11 06:31:44;;;;;;;14.47;13.10;;;13.90;99.90;;;;;;4919834;29;20200;-81
2022/10/11 06:34:10;;;;;;;14.60;13.17;;;13.90;99.90;;;;;;4924849;29;20203;-81
2022/10/11 06:36:37;;;;;;;12.63;11.43;;;13.90;99.90;;;;;;4926188;29;20646;-81
2022/10/11 06:39:04;;;;;;;14.23;12.80;;;14.00;99.90;;;;;;4945422;28;20209;-82
2022/10/11 06:41:33;;;;;;;14.30;12.90;;;14.00;99.90;;;;;;4945348;28;20200;-81
2022/10/11 06:44:00;;;;;;;16.97;15.37;;;14.00;99.90;;;;;;4945593;29;20223;-81
2022/10/11 06:46:28;;;;;;;17.73;16.23;;;14.00;99.90;;;;;;4923797;29;20230;-84
2022/10/11 06:48:56;;;;;;;19.27;17.17;;;14.00;99.90;;;;;;4931122;29;20198;-83
2022/10/11 06:51:23;;;;;;;22.20;17.23;;;14.00;99.90;;;;;;4946691;28;20211;-82
2022/10/11 06:53:51;;;;;;;21.35;18.55;;;14.00;99.90;;;;;;4931624;29;20455;-81
2022/10/11 06:56:18;;;;;;;17.67;15.77;;;14.00;99.90;;;;;;4947753;28;20248;-81
2022/10/11 06:58:47;;;;;;;14.13;12.17;;;14.00;99.90;;;;;;4944427;28;20251;-82
2022/10/11 07:01:17;;;;;;;16.10;12.70;;;14.00;99.90;;;;;;4925318;29;20199;-82
2022/10/11 07:03:45;;;;;;;17.20;12.10;;;14.00;99.90;;;;;;4944628;28;20778;-81
2022/10/11 07:06:14;;;;;;;16.03;13.07;;;14.10;99.90;;;;;;4934271;28;20296;-81
2022/10/11 07:08:42;;;;;;;17.00;12.90;;;14.10;99.90;;;;;;4932926;29;20235;-80
2022/10/11 07:11:10;;;;;;;16.03;12.47;;;14.10;99.90;;;;;;4948972;28;20223;-81
2022/10/11 07:13:38;;;;;;;19.43;17.27;;;14.10;99.90;;;;;;4945474;28;20268;-81
2022/10/11 07:16:09;;;;;;;18.37;16.67;;;14.10;99.90;;;;;;4943458;28;20221;-81
2022/10/11 07:18:36;;;;;;;19.40;17.57;;;14.20;99.90;;;;;;4946773;28;20191;-80
2022/10/11 07:21:04;;;;;;;20.33;18.33;;;14.20;99.90;;;;;;4921218;28;20311;-80
2022/10/11 07:23:31;;;;;;;22.60;20.40;;;14.20;99.90;;;;;;4951849;28;20693;-80
2022/10/11 07:25:57;;;;;;;22.23;19.93;;;14.20;99.90;;;;;;4920227;29;20231;-80
2022/10/11 07:28:25;;;;;;;21.42;19.42;;;14.20;99.90;;;;;;4941279;28;20432;-81
2022/10/11 07:30:52;;;;;;;23.58;21.27;;;14.30;99.90;;;;;;4923464;29;20528;-81
2022/10/11 07:33:20;;;;;;;19.93;16.70;;;14.20;99.90;;;;;;4947307;28;20292;-80
2022/10/11 07:35:48;;;;;;;19.83;17.83;;;14.30;99.90;;;;;;4947973;28;20216;-80
2022/10/11 07:38:15;;;;;;;21.67;19.37;;;14.30;99.90;;;;;;4927025;29;20216;-80
2022/10/11 07:40:45;;;;;;;23.03;19.90;;;14.20;99.90;;;;;;4928941;28;20251;-80
2022/10/11 07:43:13;;;;;;;24.07;21.73;;;14.20;99.90;;;;;;4953354;29;20204;-82
2022/10/11 07:45:40;;;;;;;26.30;23.63;;;14.20;99.90;;;;;;4929242;29;20700;-81
2022/10/11 07:48:07;;;;;;;24.17;20.23;;;14.20;99.90;;;;;;4930114;28;20595;-82
2022/10/11 07:50:35;;;;;;;25.07;22.40;;;14.20;99.90;;;;;;4947322;28;20221;-82
2022/10/11 07:53:03;;;;;;;23.47;21.07;;;14.20;99.90;;;;;;4929219;28;20559;-82
2022/10/11 07:55:38;;;;;;;20.75;15.98;;;14.20;99.90;;;;;;4926390;29;20453;-79
2022/10/11 07:58:06;;;;;;;18.95;15.95;;;14.30;99.90;;;;;;4919979;28;20539;-81
2022/10/11 08:00:33;;;;;;;19.63;15.30;;;14.30;99.90;;;;;;4926197;29;20259;-78
2022/10/11 08:03:02;;;;;;;26.60;21.10;;;14.40;99.90;;;;;;4925519;29;20207;-78
2022/10/11 08:05:29;;;;;;;27.73;18.10;;;14.40;99.90;;;;;;4939667;28;20213;-79
2022/10/11 08:07:58;;;;;;;21.43;16.03;;;14.30;99.90;;;;;;4948453;28;20663;-79
2022/10/11 08:10:25;;;;;;;22.17;14.70;;;14.40;99.90;;;;;;4923791;29;20217;-78
2022/10/11 08:12:52;;;;;;;23.73;20.23;;;14.50;99.90;;;;;;4933318;29;20210;-80
2022/10/11 08:15:20;;;;;;;27.77;19.77;;;14.50;99.90;;;;;;4925609;28;20644;-80
2022/10/11 08:17:47;;;;;;;24.00;17.55;;;14.50;99.90;;;;;;4932229;29;20448;-80
2022/10/11 08:20:14;;;;;;;26.67;18.40;;;14.60;99.90;;;;;;4924625;29;20981;-80
2022/10/11 08:22:41;;;;;;;30.23;22.30;;;14.60;99.90;;;;;;4927954;29;20200;-81
2022/10/11 08:25:09;;;;;;;24.67;20.47;;;14.60;99.90;;;;;;4925247;29;20210;-80
2022/10/11 08:27:36;;;;;;;26.90;24.20;;;14.70;99.90;;;;;;4949010;28;20207;-80
2022/10/11 08:30:04;;;;;;;25.50;22.33;;;14.80;99.90;;;;;;4958196;28;20244;-81
2022/10/11 08:32:31;;;;;;;28.17;19.07;;;14.90;99.90;;;;;;4929703;28;20216;-80
2022/10/11 08:34:58;;;;;;;18.17;14.40;;;14.90;99.90;;;;;;4923324;29;20258;-80
2022/10/11 08:37:25;;;;;;;20.93;16.47;;;15.00;99.90;;;;;;4946966;28;20192;-80
2022/10/11 08:39:51;;;;;;;28.93;17.00;;;15.10;99.90;;;;;;4929742;29;20198;-79
2022/10/11 08:42:28;;;;;;;26.00;21.27;;;15.10;99.90;;;;;;4931723;29;20232;-80
2022/10/11 08:44:58;;;;;;;27.57;21.53;;;15.00;99.90;;;;;;4946006;28;20198;-80
2022/10/11 08:47:28;;;;;;;30.57;21.70;;;15.00;99.90;;;;;;4934983;29;20204;-81
2022/10/11 08:49:56;;;;;;;23.77;21.30;;;15.00;99.90;;;;;;4946835;28;20208;-79
2022/10/11 08:52:27;;;;;;;31.40;22.17;;;15.10;99.90;;;;;;4924886;29;20669;-80
2022/10/11 08:54:59;;;;;;;22.90;20.53;;;15.10;99.90;;;;;;4949678;28;20219;-81
2022/10/11 08:57:29;;;;;;;22.40;20.10;;;15.10;99.90;;;;;;4938135;29;20242;-81
2022/10/11 08:59:58;;;;;;;20.93;18.93;;;15.30;99.90;;;;;;4939104;29;20225;-82
2022/10/11 09:02:38;;;;;;;33.07;20.80;;;15.50;99.90;;;;;;4949097;28;20209;-82
2022/10/11 09:05:06;;;;;;;22.37;19.43;;;15.60;99.90;;;;;;4940038;29;20251;-81
2022/10/11 09:07:46;;;;;;;29.40;22.03;;;15.70;99.90;;;;;;4949806;28;20210;-82
2022/10/11 09:10:40;;;;;;;28.40;14.80;;;15.70;99.90;;;;;;4925856;29;20252;-82
2022/10/11 09:13:19;;;;;;;22.93;15.40;;;15.70;99.90;;;;;;4925720;29;20213;-81
2022/10/11 09:15:52;;;;;;;20.77;16.80;;;15.70;99.90;;;;;;4953360;28;20222;-82
2022/10/11 09:18:38;;;;;;;20.63;18.47;;;15.70;99.90;;;;;;4951907;28;20204;-82
2022/10/11 09:21:17;;;;;;;20.27;18.03;;;15.70;99.90;;;;;;4926524;28;20207;-81
2022/10/11 09:24:09;;;;;;;23.30;19.53;;;15.80;99.90;;;;;;4952274;28;20198;-82
2022/10/11 09:26:42;;;;;;;32.23;21.10;;;15.90;99.90;;;;;;4945913;28;20581;-82
2022/10/11 09:29:19;;;;;;;24.37;19.27;;;15.90;99.90;;;;;;4927491;29;20203;-82
2022/10/11 09:31:48;;;;;;;21.23;18.50;;;15.90;99.90;;;;;;4933999;29;20210;-82
2022/10/11 09:34:16;;;;;;;25.47;19.60;;;15.90;99.90;;;;;;4949257;28;20205;-82
2022/10/11 09:36:54;;;;;;;21.13;18.97;;;15.90;99.90;;;;;;4930478;29;20692;-82
2022/10/11 09:39:29;;;;;;;23.10;18.80;;;15.90;99.90;;;;;;4939748;28;20241;-82
2022/10/11 09:42:00;;;;;;;21.83;19.23;;;15.90;99.90;;;;;;4928316;28;20262;-83
2022/10/11 09:44:35;;;;;;;24.07;18.93;;;16.00;99.90;;;;;;4947297;28;20672;-82
2022/10/11 09:47:02;;;;;;;21.93;18.63;;;16.00;99.90;;;;;;4927737;28;20233;-82
2022/10/11 09:49:35;;;;;;;19.57;17.43;;;15.90;99.90;;;;;;4952684;28;20250;-81
2022/10/11 09:52:06;;;;;;;21.20;18.80;;;15.80;99.90;;;;;;4927533;28;20237;-82
2022/10/11 09:54:40;;;;;;;22.77;18.17;;;15.80;99.90;;;;;;4950066;28;20217;-82
2022/10/11 09:57:19;;;;;;;19.37;17.40;;;15.80;99.90;;;;;;4935431;28;20229;-82
2022/10/11 09:59:59;;;;;;;19.17;16.70;;;15.80;99.90;;;;;;4929508;29;20207;-82
2022/10/11 10:02:26;;;;;;;21.30;18.83;;;15.90;99.90;;;;;;4951717;28;20262;-83
2022/10/11 10:05:00;;;;;;;22.40;17.77;;;15.80;99.90;;;;;;4954343;28;20206;-82
2022/10/11 10:07:28;;;;;;;19.43;17.30;;;16.00;99.90;;;;;;4927413;28;20660;-82
2022/10/11 10:09:55;;;;;;;17.73;15.93;;;16.20;99.90;;;;;;4954670;28;20207;-82
2022/10/11 10:12:24;;;;;;;18.90;16.00;;;16.30;99.90;;;;;;4926027;28;20226;-82
2022/10/11 10:15:04;;;;;;;20.40;18.50;;;16.50;99.90;;;;;;4924362;29;20214;-82
2022/10/11 10:17:32;;;;;;;20.37;18.17;;;16.60;99.90;;;;;;4948972;29;20191;-83
2022/10/11 10:20:00;;;;;;;17.77;16.00;;;16.70;99.90;;;;;;4948820;28;20207;-82
2022/10/11 10:22:30;;;;;;;15.37;11.33;;;16.90;99.90;;;;;;4935827;29;20295;-83
2022/10/11 10:24:59;;;;;;;15.27;11.93;;;16.80;99.90;;;;;;4926655;29;20267;-82
2022/10/11 10:27:28;;;;;;;21.87;19.77;;;16.80;99.90;;;;;;4925954;29;20207;-82
2022/10/11 10:30:13;;;;;;;23.10;20.80;;;16.50;99.90;;;;;;4925566;29;20700;-83
2022/10/11 10:32:49;;;;;;;21.43;19.20;;;16.30;99.90;;;;;;4938094;29;20195;-81
2022/10/11 10:35:26;;;;;;;20.33;18.43;;;16.20;99.90;;;;;;4924775;29;20206;-82
2022/10/11 10:38:00;;;;;;;18.83;17.00;;;16.10;99.90;;;;;;4932933;29;20199;-81
2022/10/11 10:40:35;;;;;;;19.90;18.20;;;16.00;99.90;;;;;;4924835;28;20206;-81
2022/10/11 10:43:02;;;;;;;18.53;16.83;;;15.90;99.90;;;;;;4950697;29;20262;-82
2022/10/11 10:45:44;;;;;;;20.00;18.10;;;15.90;99.90;;;;;;4925705;29;20246;-81
2022/10/11 10:48:21;;;;;;;18.70;16.47;;;15.80;99.90;;;;;;4950016;28;20209;-82
2022/10/11 10:50:55;;;;;;;19.67;17.60;;;15.80;99.90;;;;;;4948593;28;20751;-81
2022/10/11 10:53:33;;;;;;;15.17;10.83;;;15.70;99.90;;;;;;4936794;29;20268;-81
2022/10/11 10:56:07;;;;;;;16.30;11.97;;;15.70;99.90;;;;;;4927487;29;20226;-82
2022/10/11 10:59:06;;;;;;;24.27;20.20;;;15.70;99.90;;;;;;4954443;28;20197;-81
2022/10/11 11:01:43;;;;;;;22.80;20.40;;;15.70;99.90;;;;;;4925971;29;20205;-82
2022/10/11 11:04:24;;;;;;;19.77;17.67;;;15.70;99.90;;;;;;4951488;28;20198;-81
2022/10/11 11:06:55;;;;;;;19.97;17.83;;;15.70;99.90;;;;;;4950256;28;20226;-81
2022/10/11 11:09:33;;;;;;;23.43;21.13;;;15.80;99.90;;;;;;4927706;29;20200;-82
2022/10/11 11:12:15;;;;;;;19.23;17.23;;;15.80;99.90;;;;;;4953575;29;20762;-82
2022/10/11 11:14:57;;;;;;;20.40;17.17;;;16.00;99.90;;;;;;4928267;29;20239;-82
2022/10/11 11:17:36;;;;;;;20.30;18.17;;;16.10;99.90;;;;;;4933134;29;20227;-81
2022/10/11 11:20:24;;;;;;;16.87;10.70;;;16.30;99.90;;;;;;4950847;28;20200;-82
2022/10/11 11:22:57;;;;;;;18.07;12.13;;;16.40;99.90;;;;;;4957298;28;20659;-84
2022/10/11 11:25:35;;;;;;;17.63;11.37;;;16.50;99.90;;;;;;4933589;29;20222;-83
2022/10/11 11:28:16;;;;;;;18.67;14.47;;;16.50;99.90;;;;;;4933328;29;20215;-84
2022/10/11 11:30:53;;;;;;;16.23;14.40;;;16.60;99.90;;;;;;4952358;28;20207;-84
2022/10/11 11:33:34;;;;;;;17.50;10.90;;;16.80;99.90;;;;;;4951996;28;20623;-81
2022/10/11 11:36:03;;;;;;;13.40;12.03;;;;;;;;;;4934164;29;20234;-80
2022/10/11 11:38:41;;;;;;;13.67;11.57;;;17.00;99.90;;;;;;4948033;28;20200;-84
2022/10/11 11:41:21;;;;;;;16.23;12.53;;;17.00;99.90;;;;;;4928333;29;20203;-81
2022/10/11 11:44:00;;;;;;;13.73;9.20;;;17.10;99.90;;;;;;4949366;28;20214;-81
2022/10/11 11:46:30;;;;;;;14.47;12.27;;;17.30;99.90;;;;;;4927645;28;20627;-81
2022/10/11 11:49:24;;;;;;;19.67;14.77;;;17.40;99.90;;;;;;4951967;29;20196;-81
2022/10/11 11:52:01;;;;;;;14.93;12.70;;;17.50;99.90;;;;;;4931473;29;20780;-81
2022/10/11 11:54:44;;;;;;;16.73;14.53;;;17.40;99.90;;;;;;4955928;28;20196;-81
2022/10/11 11:57:22;;;;;;;14.30;10.20;;;17.50;99.90;;;;;;4930912;29;20260;-81
2022/10/11 11:59:55;;;;;;;18.80;16.80;;;17.40;99.90;;;;;;4953597;28;20230;-81
2022/10/11 12:02:42;;;;;;;26.27;17.33;;;17.40;99.90;;;;;;4937617;29;20222;-81
2022/10/11 12:05:12;;;;;;;18.13;16.27;;;17.30;99.90;;;;;;4936779;29;20575;-81
2022/10/11 12:07:54;;;;;;;17.40;15.80;;;17.50;99.90;;;;;;4933533;29;20255;-81
2022/10/11 12:10:33;;;;;;;18.30;16.47;;;17.50;99.90;;;;;;4951895;28;20236;-80
2022/10/11 12:13:15;;;;;;;17.40;15.77;;;17.50;99.90;;;;;;4942020;29;20204;-79
2022/10/11 12:15:56;;;;;;;19.70;17.73;;;17.30;99.90;;;;;;4963700;29;20222;-80
2022/10/11 12:18:30;;;;;;;20.73;16.83;;;17.20;99.90;;;;;;4936632;29;20214;-81
2022/10/11 12:21:08;;;;;;;17.97;16.27;;;17.10;99.90;;;;;;4944496;29;20625;-81
2022/10/11 12:23:47;;;;;;;17.93;15.50;;;16.90;99.90;;;;;;4942699;29;20232;-80
2022/10/11 12:26:55;;;;;;;15.00;12.73;;;16.80;99.90;;;;;;4961503;28;20282;-80
2022/10/11 12:29:47;;;;;;;16.00;10.87;;;16.70;99.90;;;;;;4938389;29;20224;-79
2022/10/11 12:32:56;;;;;;;17.60;10.13;;;16.70;99.90;;;;;;4940752;29;20233;-80
2022/10/11 12:35:55;;;;;;;14.73;9.87;;;16.70;99.90;;;;;;4939438;29;20222;-80
2022/10/11 12:38:25;;;;;;;12.23;10.83;;;16.70;99.90;;;;;;4934047;29;21861;-80
2022/10/11 12:40:55;;;;;;;14.70;10.43;;;16.70;99.90;;;;;;4934738;29;20200;-80
2022/10/11 12:43:31;;;;;;;20.90;11.97;;;16.60;99.90;;;;;;4958951;28;20219;-80
2022/10/11 12:46:35;;;;;;;17.43;15.60;;;16.50;99.90;;;;;;4935962;29;20250;-81
2022/10/11 12:49:17;;;;;;;14.93;13.40;;;16.50;99.90;;;;;;4949810;28;20664;-79
2022/10/11 12:51:53;;;;;;;14.33;9.47;;;16.60;99.90;;;;;;4936137;29;20218;-79
2022/10/11 12:54:42;;;;;;;13.77;9.57;;;16.60;99.90;;;;;;4933230;29;20211;-79